createdAt,value
2023-02-25T00:01:22.321Z,9.00
2023-02-25T00:03:51.261Z,10.20
2023-02-25T00:09:01.964Z,7.63
2023-02-25T00:14:13.323Z,8.33
2023-02-25T00:16:40.211Z,4.30
2023-02-25T00:19:06.868Z,8.37
2023-02-25T00:21:33.499Z,6.87
2023-02-25T00:24:07.344Z,8.47
2023-02-25T00:26:42.271Z,7.60
2023-02-25T00:31:53.714Z,7.93
2023-02-25T00:34:20.419Z,7.90
2023-02-25T00:36:47.197Z,7.93
2023-02-25T00:39:13.918Z,8.33
2023-02-25T00:44:24.557Z,6.60
2023-02-25T00:46:51.253Z,8.07
2023-02-25T00:49:30.582Z,8.30
2023-02-25T00:52:00.072Z,7.77
2023-02-25T00:54:26.859Z,8.70
2023-02-25T00:56:53.459Z,8.13
2023-02-25T01:02:04.365Z,8.03
2023-02-25T01:04:31.126Z,7.73
2023-02-25T01:06:57.998Z,7.47
2023-02-25T01:09:26.019Z,6.93
2023-02-25T01:11:52.651Z,6.90
2023-02-25T01:14:20.509Z,6.67
2023-02-25T01:16:47.388Z,7.53
2023-02-25T01:19:21.061Z,6.53
2023-02-25T01:21:48.260Z,5.57
2023-02-25T01:24:18.825Z,7.97
2023-02-25T01:26:45.555Z,6.70
2023-02-25T01:29:13.915Z,7.13
2023-02-25T01:31:40.723Z,7.50
2023-02-25T01:34:08.382Z,8.20
2023-02-25T01:36:35.136Z,9.67
2023-02-25T01:39:01.797Z,8.63
2023-02-25T02:16:49.901Z,8.37
2023-02-25T02:19:31.915Z,7.43
2023-02-25T02:22:07.527Z,6.87
2023-02-25T02:24:54.415Z,9.20
2023-02-25T02:27:25.253Z,9.17
2023-02-25T02:30:05.114Z,9.43
2023-02-25T02:32:48.068Z,10.13
2023-02-25T02:35:22.720Z,9.13
2023-02-25T02:37:49.395Z,10.23
2023-02-25T02:40:15.982Z,10.60
2023-02-25T02:43:01.310Z,9.73
2023-02-25T02:45:29.958Z,11.07
2023-02-25T02:48:00.450Z,10.53
2023-02-25T02:50:29.467Z,10.33
2023-02-25T02:52:56.428Z,11.57
2023-02-25T02:55:24.864Z,11.63
2023-02-25T03:00:48.644Z,10.23
2023-02-25T03:06:05.809Z,10.37
2023-02-25T03:11:17.507Z,9.40
2023-02-25T03:16:37.100Z,10.03
2023-02-25T03:19:16.579Z,10.47
2023-02-25T03:21:44.292Z,11.27
2023-02-25T03:24:13.325Z,10.60
2023-02-25T03:26:42.809Z,10.33
2023-02-25T03:29:18.029Z,10.03
2023-02-25T03:34:36.362Z,9.40
2023-02-25T03:37:06.603Z,9.37
2023-02-25T03:39:33.885Z,8.67
2023-02-25T03:42:01.832Z,9.37
2023-02-25T03:44:30.371Z,8.67
2023-02-25T03:46:56.949Z,7.93
2023-02-25T03:49:25.875Z,8.53
2023-02-25T03:51:52.503Z,8.00
2023-02-25T03:54:19.488Z,7.73
2023-02-25T03:56:48.632Z,8.30
2023-02-25T03:59:15.442Z,7.77
2023-02-25T04:01:42.388Z,8.27
2023-02-25T04:04:09.246Z,8.13
2023-02-25T04:09:20.098Z,7.83
2023-02-25T04:14:33.517Z,7.27
2023-02-25T04:19:45.008Z,8.07
2023-02-25T04:22:11.666Z,8.07
2023-02-25T04:24:38.263Z,7.63
2023-02-25T04:27:04.816Z,8.17
2023-02-25T04:32:16.077Z,8.00
2023-02-25T04:37:26.532Z,8.17
2023-02-25T04:39:53.138Z,7.87
2023-02-25T04:42:19.773Z,7.60
2023-02-25T04:44:46.355Z,7.67
2023-02-25T04:47:12.933Z,8.07
2023-02-25T04:49:44.854Z,8.07
2023-02-25T04:54:58.651Z,7.23
2023-02-25T04:57:25.846Z,7.03
2023-02-25T04:59:52.462Z,7.53
2023-02-25T05:02:19.016Z,7.60
2023-02-25T05:04:45.783Z,7.80
2023-02-25T05:07:12.382Z,6.57
2023-02-25T05:09:38.977Z,7.23
2023-02-25T05:12:05.654Z,7.97
2023-02-25T05:14:33.223Z,7.20
2023-02-25T05:16:59.840Z,8.47
2023-02-25T05:19:26.459Z,8.23
2023-02-25T05:21:53.099Z,8.93
2023-02-25T05:24:19.808Z,9.53
2023-02-25T05:26:46.384Z,8.37
2023-02-25T05:29:13.048Z,9.53
2023-02-25T05:31:39.872Z,9.83
2023-02-25T05:34:06.616Z,8.90
2023-02-25T05:36:33.192Z,10.87
2023-02-25T05:39:02.681Z,10.03
2023-02-25T05:44:13.660Z,10.73
2023-02-25T05:49:24.124Z,9.90
2023-02-25T05:51:50.692Z,10.07
2023-02-25T05:54:17.434Z,10.30
2023-02-25T05:56:44.433Z,9.50
2023-02-25T05:59:11.885Z,10.60
2023-02-25T06:01:38.527Z,9.87
2023-02-25T06:04:05.168Z,9.37
2023-02-25T06:06:32.101Z,10.33
2023-02-25T06:08:58.840Z,9.13
2023-02-25T06:11:26.307Z,9.07
2023-02-25T06:13:53.492Z,9.93
2023-02-25T06:16:20.636Z,9.53
2023-02-25T06:18:47.529Z,9.87
2023-02-25T06:21:14.281Z,9.33
2023-02-25T06:23:41.460Z,8.90
2023-02-25T06:26:08.337Z,9.30
2023-02-25T06:31:20.023Z,8.53
2023-02-25T06:33:47.088Z,8.47
2023-02-25T06:36:13.875Z,8.43
2023-02-25T06:38:40.494Z,8.33
2023-02-25T06:41:07.865Z,9.30
2023-02-25T06:43:34.718Z,9.10
2023-02-25T06:46:04.144Z,9.70
2023-02-25T06:48:30.789Z,9.67
2023-02-25T06:50:57.345Z,8.90
2023-02-25T06:53:24.472Z,10.43
2023-02-25T06:58:34.999Z,10.73
2023-02-25T07:01:01.594Z,11.47
2023-02-25T07:03:28.287Z,11.77
2023-02-25T07:05:54.852Z,10.27
2023-02-25T07:08:21.456Z,10.00
2023-02-25T07:10:48.031Z,10.63
2023-02-25T07:13:14.730Z,10.10
2023-02-25T07:15:42.029Z,8.50
2023-02-25T07:18:09.114Z,9.90
2023-02-25T07:20:35.702Z,7.93
2023-02-25T07:23:03.014Z,7.53
2023-02-25T07:25:29.628Z,7.40
2023-02-25T07:27:56.218Z,6.97
2023-02-25T07:30:22.799Z,7.60
2023-02-25T07:32:49.520Z,6.57
2023-02-25T07:35:16.158Z,9.53
2023-02-25T07:37:42.783Z,7.37
2023-02-25T07:40:13.040Z,7.07
2023-02-25T07:42:40.825Z,8.13
2023-02-25T07:45:08.160Z,9.27
2023-02-25T07:47:35.978Z,9.63
2023-02-25T07:50:03.208Z,10.27
2023-02-25T07:52:30.193Z,9.80
2023-02-25T07:54:57.119Z,8.07
2023-02-25T07:57:24.097Z,7.67
2023-02-25T07:59:51.547Z,8.10
2023-02-25T08:02:18.282Z,7.57
2023-02-25T08:04:45.019Z,8.37
2023-02-25T08:07:13.803Z,12.60
2023-02-25T08:09:41.907Z,17.27
2023-02-25T08:12:09.770Z,30.83
2023-02-25T08:17:21.669Z,31.63
2023-02-25T08:19:49.034Z,18.13
2023-02-25T08:22:15.762Z,14.33
2023-02-25T08:24:42.399Z,15.70
2023-02-25T08:27:09.393Z,17.00
2023-02-25T08:29:36.484Z,15.83
2023-02-25T08:32:03.686Z,8.30
2023-02-25T08:34:30.994Z,7.30
2023-02-25T08:36:59.452Z,7.80
2023-02-25T08:39:26.951Z,7.90
2023-02-25T08:41:53.703Z,6.30
2023-02-25T08:44:20.993Z,5.70
2023-02-25T08:46:48.574Z,5.73
2023-02-25T08:49:15.312Z,5.60
2023-02-25T08:51:44.335Z,5.00
2023-02-25T08:54:11.983Z,4.77
2023-02-25T08:56:44.532Z,4.53
2023-02-25T08:59:12.573Z,5.33
2023-02-25T09:01:45.749Z,6.00
2023-02-25T09:04:13.216Z,5.27
2023-02-25T09:06:39.787Z,3.33
2023-02-25T09:09:06.458Z,3.17
2023-02-25T09:11:33.169Z,3.13
2023-02-25T09:13:59.935Z,2.83
2023-02-25T09:16:28.551Z,2.73
2023-02-25T09:18:55.168Z,2.50
2023-02-25T09:21:22.034Z,2.67
2023-02-25T09:23:51.429Z,2.40
2023-02-25T09:26:18.652Z,2.20
2023-02-25T09:28:45.942Z,2.50
2023-02-25T09:31:12.691Z,2.53
2023-02-25T09:33:39.863Z,2.53
2023-02-25T09:36:08.632Z,2.83
2023-02-25T09:41:35.657Z,2.00
2023-02-25T09:44:02.630Z,2.30
2023-02-25T09:46:29.851Z,1.10
2023-02-25T09:49:04.338Z,1.83
2023-02-25T09:51:34.552Z,1.50
2023-02-25T09:54:08.521Z,1.00
2023-02-25T09:56:35.566Z,1.30
2023-02-25T09:59:02.245Z,1.17
2023-02-25T10:01:49.592Z,0.87
2023-02-25T10:04:16.372Z,0.87
2023-02-25T10:06:44.430Z,0.73
2023-02-25T10:09:30.189Z,0.50
2023-02-25T10:11:57.019Z,0.80
2023-02-25T10:14:25.438Z,0.60
2023-02-25T10:19:42.810Z,0.67
2023-02-25T10:22:18.642Z,0.60
2023-02-25T10:24:49.941Z,0.80
2023-02-25T10:30:31.458Z,0.57
2023-02-25T10:35:43.191Z,0.60
2023-02-25T10:38:15.532Z,0.60
2023-02-25T10:40:42.451Z,0.90
2023-02-25T10:43:35.384Z,0.97
2023-02-25T10:46:10.593Z,0.93
2023-02-25T10:48:38.285Z,0.97
2023-02-25T10:51:12.186Z,0.90
2023-02-25T10:56:53.054Z,0.77
2023-02-25T10:59:24.709Z,0.83
2023-02-25T11:01:51.436Z,0.93
2023-02-25T11:04:18.877Z,1.07
2023-02-25T11:06:46.001Z,0.70
2023-02-25T11:09:35.366Z,1.13
2023-02-25T11:14:46.644Z,1.00
2023-02-25T11:17:14.949Z,1.00
2023-02-25T11:19:42.677Z,1.50
2023-02-25T11:25:03.538Z,0.93
2023-02-25T11:27:54.352Z,1.43
2023-02-25T11:30:25.465Z,2.00
2023-02-25T11:32:55.746Z,1.83
2023-02-25T11:35:35.678Z,1.40
2023-02-25T11:38:28.312Z,1.87
2023-02-25T11:40:54.993Z,1.30
2023-02-25T11:43:25.508Z,1.80
2023-02-25T11:46:14.956Z,1.53
2023-02-25T11:48:49.266Z,1.70
2023-02-25T11:54:00.431Z,1.63
2023-02-25T11:56:49.514Z,1.30
2023-02-25T11:59:31.175Z,1.30
2023-02-25T12:01:57.881Z,0.93
2023-02-25T12:04:42.999Z,1.13
2023-02-25T12:07:16.066Z,1.10
2023-02-25T12:09:49.003Z,1.30
2023-02-25T12:12:34.352Z,0.87
2023-02-25T12:15:07.532Z,1.17
2023-02-25T12:17:42.217Z,1.20
2023-02-25T12:20:09.065Z,1.87
2023-02-25T12:22:56.212Z,1.97
2023-02-25T12:25:22.887Z,1.30
2023-02-25T12:28:01.920Z,1.50
2023-02-25T12:30:47.379Z,1.40
2023-02-25T12:33:16.848Z,1.57
2023-02-25T12:35:54.841Z,1.43
2023-02-25T12:38:40.017Z,1.50
2023-02-25T12:41:09.625Z,1.30
2023-02-25T12:43:45.748Z,1.33
2023-02-25T12:46:23.589Z,1.33
2023-02-25T12:48:59.751Z,1.50
2023-02-25T12:51:32.426Z,1.80
2023-02-25T12:53:59.044Z,1.50
2023-02-25T12:56:25.731Z,1.10
2023-02-25T12:59:00.993Z,1.40
2023-02-25T13:01:34.300Z,1.83
2023-02-25T13:04:10.526Z,4.07
2023-02-25T13:06:56.111Z,1.60
2023-02-25T13:09:32.014Z,1.57
2023-02-25T13:12:17.555Z,1.67
2023-02-25T13:14:50.281Z,1.90
2023-02-25T13:17:35.592Z,1.80
2023-02-25T13:20:21.523Z,1.83
2023-02-25T13:22:54.537Z,1.50
2023-02-25T13:25:39.314Z,1.80
2023-02-25T13:31:27.924Z,1.50
2023-02-25T13:33:58.866Z,1.57
2023-02-25T13:36:28.488Z,1.27
2023-02-25T13:38:55.228Z,1.60
2023-02-25T13:41:22.900Z,1.90
2023-02-25T13:43:51.954Z,1.20
2023-02-25T13:46:35.830Z,1.43
2023-02-25T13:49:06.452Z,1.80
2023-02-25T13:54:39.259Z,2.10
2023-02-25T13:57:25.320Z,3.03
2023-02-25T14:00:11.098Z,8.10
2023-02-25T14:02:47.946Z,3.80
2023-02-25T14:05:14.754Z,2.47
2023-02-25T14:10:50.720Z,3.47
2023-02-25T14:13:24.115Z,3.27
2023-02-25T14:16:09.350Z,3.70
2023-02-25T14:18:55.277Z,3.70
2023-02-25T14:21:22.194Z,2.80
2023-02-25T14:23:55.520Z,2.83
2023-02-25T14:26:25.784Z,3.60
2023-02-25T14:29:06.700Z,2.90
2023-02-25T14:32:08.862Z,6.73
2023-02-25T14:37:29.513Z,5.93
2023-02-25T14:40:15.265Z,7.43
2023-02-25T14:42:45.659Z,11.23
2023-02-25T14:45:15.126Z,20.40
2023-02-25T14:51:07.809Z,3.07
2023-02-25T14:53:43.735Z,2.83
2023-02-25T14:56:30.753Z,7.00
2023-02-25T14:58:58.171Z,13.03
2023-02-25T15:01:25.508Z,6.83
2023-02-25T15:04:02.006Z,2.77
2023-02-25T15:06:31.559Z,2.83
2023-02-25T15:12:20.448Z,2.07
2023-02-25T15:14:53.448Z,3.63
2023-02-25T15:17:44.525Z,6.67
2023-02-25T15:23:07.104Z,2.80
2023-02-25T15:25:55.597Z,1.57
2023-02-25T15:28:31.545Z,6.33
2023-02-25T15:31:04.216Z,27.37
2023-02-25T15:33:35.025Z,28.67
2023-02-25T15:36:31.154Z,5.37
2023-02-25T15:38:58.122Z,2.77
2023-02-25T15:41:27.964Z,11.70
2023-02-25T15:43:55.732Z,8.90
2023-02-25T15:46:25.470Z,6.80
2023-02-25T15:49:07.601Z,3.70
2023-02-25T15:51:43.408Z,3.73
2023-02-25T15:54:13.206Z,3.70
2023-02-25T15:57:07.152Z,3.23
2023-02-25T15:59:45.569Z,6.40
2023-02-25T16:02:28.897Z,4.10
2023-02-25T16:05:18.817Z,8.53
2023-02-25T16:07:47.532Z,6.77
2023-02-25T16:10:14.114Z,8.43
2023-02-25T16:12:41.492Z,4.57
2023-02-25T16:15:11.462Z,5.77
2023-02-25T16:17:38.102Z,5.87
2023-02-25T16:20:09.419Z,4.10
2023-02-25T16:22:36.517Z,4.30
2023-02-25T16:25:03.179Z,4.57
2023-02-25T16:27:48.579Z,4.80
2023-02-25T16:30:22.400Z,6.20
2023-02-25T16:33:06.547Z,4.13
2023-02-25T16:35:42.321Z,4.87
2023-02-25T16:38:12.268Z,3.40
2023-02-25T16:40:39.520Z,3.80
2023-02-25T16:43:06.274Z,4.43
2023-02-25T16:45:38.159Z,2.27
2023-02-25T16:48:06.416Z,4.07
2023-02-25T16:50:33.121Z,5.47
2023-02-25T16:53:00.629Z,3.73
2023-02-25T16:55:30.997Z,2.67
2023-02-25T16:58:05.126Z,3.53
2023-02-25T17:00:33.159Z,4.40
2023-02-25T17:03:01.095Z,2.20
2023-02-25T17:05:32.798Z,1.80
2023-02-25T17:08:01.319Z,1.70
2023-02-25T17:10:32.700Z,1.70
2023-02-25T17:13:00.263Z,1.77
2023-02-25T17:15:27.810Z,3.83
2023-02-25T17:18:08.700Z,2.17
2023-02-25T17:20:35.512Z,2.33
2023-02-25T17:23:04.039Z,2.17
2023-02-25T17:25:34.922Z,2.00
2023-02-25T17:28:01.976Z,2.33
2023-02-25T17:30:39.298Z,2.10
2023-02-25T17:33:06.454Z,3.27
2023-02-25T17:35:33.248Z,2.70
2023-02-25T17:40:45.787Z,2.50
2023-02-25T17:43:15.804Z,2.07
2023-02-25T17:45:46.220Z,2.23
2023-02-25T17:48:20.651Z,2.40
2023-02-25T17:50:57.997Z,1.70
2023-02-25T17:53:37.283Z,2.23
2023-02-25T17:56:10.734Z,3.40
2023-02-25T17:58:37.649Z,2.07
2023-02-25T18:03:51.109Z,20.07
2023-02-25T18:06:27.232Z,7.60
2023-02-25T18:08:55.122Z,4.37
2023-02-25T18:11:29.955Z,2.50
2023-02-25T18:13:56.688Z,2.27
2023-02-25T18:16:28.691Z,2.70
2023-02-25T18:21:41.411Z,35.83
2023-02-25T18:24:08.178Z,6.63
2023-02-25T18:26:35.398Z,3.53
2023-02-25T18:29:02.024Z,2.10
2023-02-25T18:31:29.289Z,3.00
2023-02-25T18:33:56.044Z,2.37
2023-02-25T18:36:23.926Z,2.33
2023-02-25T18:41:35.183Z,2.10
2023-02-25T18:44:02.393Z,6.90
2023-02-25T18:46:29.242Z,4.40
2023-02-25T18:48:58.288Z,2.13
2023-02-25T18:51:27.622Z,2.10
2023-02-25T18:53:54.246Z,2.67
2023-02-25T18:56:21.351Z,2.07
2023-02-25T18:58:48.094Z,1.80
2023-02-25T19:01:21.351Z,2.17
2023-02-25T19:06:34.005Z,2.53
2023-02-25T19:09:02.666Z,2.23
2023-02-25T19:11:31.023Z,3.03
2023-02-25T19:13:57.817Z,1.90
2023-02-25T19:16:25.340Z,2.33
2023-02-25T19:18:52.274Z,3.90
2023-02-25T19:21:20.285Z,2.53
2023-02-25T19:23:47.080Z,1.60
2023-02-25T19:26:16.209Z,1.20
2023-02-25T19:28:43.040Z,1.27
2023-02-25T19:31:10.181Z,1.53
2023-02-25T19:33:37.156Z,2.30
2023-02-25T19:36:06.896Z,1.20
2023-02-25T19:38:34.029Z,0.90
2023-02-25T19:41:04.167Z,1.20
2023-02-25T19:43:33.857Z,1.53
2023-02-25T19:48:47.518Z,1.20
2023-02-25T19:51:14.354Z,0.90
2023-02-25T19:53:43.519Z,1.23
2023-02-25T19:56:10.950Z,2.60
2023-02-25T19:58:38.130Z,1.77
2023-02-25T20:01:06.698Z,1.60
2023-02-25T20:03:34.919Z,1.40
2023-02-25T20:06:08.589Z,1.50
2023-02-25T20:08:36.505Z,2.10
2023-02-25T20:11:03.628Z,6.00
2023-02-25T20:16:16.528Z,3.30
2023-02-25T20:18:45.189Z,2.20
2023-02-25T20:21:14.730Z,1.77
2023-02-25T20:23:41.508Z,1.30
2023-02-25T20:26:10.325Z,2.57
2023-02-25T20:28:37.125Z,1.73
2023-02-25T20:31:07.733Z,3.07
2023-02-25T20:33:35.007Z,0.97
2023-02-25T20:36:03.072Z,1.00
2023-02-25T20:38:34.391Z,1.03
2023-02-25T20:41:01.437Z,1.40
2023-02-25T20:43:28.168Z,0.70
2023-02-25T20:45:55.066Z,1.00
2023-02-25T20:51:13.416Z,1.20
2023-02-25T20:53:41.033Z,1.33
2023-02-25T20:56:10.249Z,2.17
2023-02-25T20:58:36.972Z,3.07
2023-02-25T21:01:04.303Z,1.27
2023-02-25T21:03:31.015Z,2.17
2023-02-25T21:05:57.755Z,1.43
2023-02-25T21:08:25.311Z,1.20
2023-02-25T21:10:52.125Z,0.80
2023-02-25T21:13:18.764Z,1.87
2023-02-25T21:15:45.777Z,2.00
2023-02-25T21:18:20.900Z,2.40
2023-02-25T21:20:48.895Z,2.80
2023-02-25T21:23:15.983Z,1.00
2023-02-25T21:25:42.622Z,1.30
2023-02-25T21:28:10.608Z,1.80
2023-02-25T21:30:38.553Z,0.93
2023-02-25T21:33:08.534Z,1.70
2023-02-25T21:35:36.892Z,1.97
2023-02-25T21:38:04.131Z,1.00
2023-02-25T21:40:32.710Z,1.03
2023-02-25T21:42:59.848Z,0.90
2023-02-25T21:45:26.803Z,1.70
2023-02-25T21:47:54.789Z,1.23
2023-02-25T21:50:24.030Z,1.50
2023-02-25T21:52:55.880Z,1.23
2023-02-25T21:55:23.081Z,1.20
2023-02-25T21:57:49.836Z,1.57
2023-02-25T22:00:19.346Z,1.33
2023-02-25T22:05:31.561Z,0.80
2023-02-25T22:07:58.733Z,1.87
2023-02-25T22:10:25.498Z,1.40
2023-02-25T22:12:53.913Z,6.23
2023-02-25T22:18:05.366Z,1.30
2023-02-25T22:23:16.404Z,0.47
2023-02-25T22:28:27.655Z,1.10
2023-02-25T22:30:54.498Z,1.50
2023-02-25T22:33:21.870Z,1.37
2023-02-25T22:36:00.062Z,1.10
2023-02-25T22:38:30.448Z,0.83
2023-02-25T22:41:01.408Z,0.90
2023-02-25T22:43:28.525Z,0.70
2023-02-25T22:46:07.174Z,0.87
2023-02-25T22:48:34.739Z,1.00
2023-02-25T22:51:01.322Z,0.83
2023-02-25T22:53:27.952Z,1.10
2023-02-25T22:55:54.678Z,1.10
2023-02-25T22:58:21.442Z,0.90
2023-02-25T23:03:32.912Z,1.10
2023-02-25T23:08:44.468Z,1.50
2023-02-25T23:13:58.403Z,0.90
2023-02-25T23:19:13.730Z,1.47
2023-02-25T23:21:40.364Z,1.20
2023-02-25T23:24:07.766Z,0.90
2023-02-25T23:26:37.163Z,1.40
2023-02-25T23:29:04.376Z,1.20
2023-02-25T23:31:31.913Z,1.10
2023-02-25T23:34:01.785Z,1.03
2023-02-25T23:36:28.475Z,1.53
2023-02-25T23:39:01.644Z,1.33
2023-02-25T23:41:28.971Z,1.83
2023-02-25T23:43:56.238Z,2.20
2023-02-25T23:46:23.413Z,1.40
2023-02-25T23:48:52.287Z,1.60
2023-02-25T23:51:18.986Z,0.67
2023-02-25T23:53:45.571Z,1.20
2023-02-25T23:56:12.702Z,0.87
2023-02-25T23:58:39.486Z,1.27
